Time;durP1;ratioP1;P1;durP2;ratioP2;P2;SDS_P1;SDS_P2;PMS_P1;PMS_P2;Temp;Humidity;BMP_temperature;BMP_pressure;BME280_temperature;BME280_humidity;BME280_pressure;Samples;Min_cycle;Max_cycle;Signal;HPM_P1;HPM_P2
2021/11/23 00:00:26;;;;;;;9.00;3.67;;;;;;;-3.27;55.49;99940.97;4967274;28;20051;-78
2021/11/23 00:02:54;;;;;;;4.70;2.88;;;;;;;-3.34;55.86;99925.38;4974746;28;20074;-78
2021/11/23 00:05:20;;;;;;;3.30;2.10;;;;;;;-3.37;56.14;99930.31;4963982;28;20098;-82
2021/11/23 00:07:46;;;;;;;2.55;1.35;;;;;;;-3.34;55.72;99938.09;4963911;28;20444;-79
2021/11/23 00:10:12;;;;;;;5.45;1.55;;;;;;;-3.48;55.74;99932.31;4966956;28;20043;-78
2021/11/23 00:12:38;;;;;;;3.47;1.50;;;;;;;-3.34;56.10;99945.75;4962913;28;20133;-79
2021/11/23 00:15:05;;;;;;;3.17;1.50;;;;;;;-3.51;55.87;99922.00;4966633;28;20039;-80
2021/11/23 00:17:30;;;;;;;5.72;1.30;;;;;;;-3.41;56.44;99941.13;4963594;28;20041;-81
2021/11/23 00:19:57;;;;;;;2.78;1.50;;;;;;;-3.46;55.96;99929.88;4945942;28;20130;-79
2021/11/23 00:22:22;;;;;;;2.72;1.27;;;;;;;-3.39;56.03;99947.19;4980351;28;20427;-79
2021/11/23 00:24:48;;;;;;;3.83;1.35;;;;;;;-3.45;56.15;99930.72;4962492;28;20038;-82
2021/11/23 00:27:14;;;;;;;7.53;1.63;;;;;;;-3.46;56.19;99924.78;4947863;28;20039;-78
2021/11/23 00:29:41;;;;;;;3.00;1.40;;;;;;;-3.41;55.97;99946.22;4965929;28;20135;-80
2021/11/23 00:32:07;;;;;;;2.08;1.23;;;;;;;-3.61;56.24;99917.25;4969965;28;20054;-76
2021/11/23 00:34:33;;;;;;;4.13;1.63;;;;;;;-3.41;56.41;99937.72;4962138;28;20054;-75
2021/11/23 00:36:59;;;;;;;2.05;1.27;;;;;;;-3.41;56.24;99933.50;4965739;28;20129;-78
2021/11/23 00:39:25;;;;;;;3.47;1.50;;;;;;;-3.42;56.12;99949.56;4947466;28;20093;-79
2021/11/23 00:41:51;;;;;;;4.13;1.42;;;;;;;-3.54;56.21;99932.03;4949308;28;20568;-75
2021/11/23 00:44:19;;;;;;;3.20;1.10;;;;;;;-3.52;56.58;99929.56;4968786;28;20110;-78
2021/11/23 00:46:46;;;;;;;3.05;1.35;;;;;;;-3.46;56.12;99951.88;4969040;28;20053;-83
2021/11/23 00:49:14;;;;;;;5.50;1.77;;;;;;;-3.50;56.81;99944.09;4964897;28;20046;-80
2021/11/23 00:51:41;;;;;;;2.28;1.45;;;;;;;-3.56;56.79;99933.63;4973082;28;20146;-79
2021/11/23 00:54:07;;;;;;;2.05;1.20;;;;;;;-3.55;56.50;99930.28;4966816;28;20061;-78
2021/11/23 00:56:34;;;;;;;2.42;1.10;;;;;;;-3.54;56.47;99932.03;4968401;28;20042;-78
2021/11/23 00:59:01;;;;;;;4.03;1.17;;;;;;;-3.44;56.63;99947.75;4982603;28;20046;-77
2021/11/23 01:01:27;;;;;;;2.58;1.23;;;;;;;-3.49;56.57;99945.00;4983407;28;20047;-77
2021/11/23 01:03:53;;;;;;;3.03;1.10;;;;;;;-3.65;56.91;99918.78;4969996;28;20050;-74
2021/11/23 01:06:19;;;;;;;2.75;1.40;;;;;;;-3.47;56.38;99953.56;4963631;28;20061;-77
2021/11/23 01:08:46;;;;;;;3.13;1.30;;;;;;;-3.61;56.37;99929.97;4979765;28;20046;-78
2021/11/23 01:11:14;;;;;;;2.53;1.20;;;;;;;-3.46;56.56;99955.31;4978868;28;20077;-75
2021/11/23 01:13:41;;;;;;;4.05;1.30;;;;;;;-3.46;56.29;99951.88;4981803;28;20043;-76
2021/11/23 01:16:08;;;;;;;5.38;1.40;;;;;;;-3.67;56.81;99922.91;4985792;28;20042;-76
2021/11/23 01:18:35;;;;;;;3.53;1.10;;;;;;;-3.78;56.69;99902.03;4970122;28;20043;-77
2021/11/23 01:21:03;;;;;;;3.13;1.73;;;;;;;-3.47;56.67;99958.66;4982173;28;20050;-77
2021/11/23 01:23:30;;;;;;;5.18;1.70;;;;;;;-3.52;56.42;99955.00;4979869;28;20047;-77
2021/11/23 01:25:56;;;;;;;3.25;1.20;;;;;;;-3.49;57.11;99953.47;4979237;28;20034;-76
2021/11/23 01:28:23;;;;;;;5.70;1.50;;;;;;;-3.51;56.90;99947.44;4998400;28;20035;-77
2021/11/23 01:30:49;;;;;;;6.28;1.60;;;;;;;-3.61;56.65;99936.72;4983068;28;20070;-77
2021/11/23 01:33:17;;;;;;;5.10;1.30;;;;;;;-3.61;56.79;99950.34;4961971;28;20046;-77
2021/11/23 01:35:43;;;;;;;1.88;1.20;;;;;;;-3.70;57.23;99925.31;4974002;28;20051;-81
2021/11/23 01:38:09;;;;;;;2.53;1.35;;;;;;;-3.68;56.29;99938.09;4969945;28;20448;-78
2021/11/23 01:40:35;;;;;;;4.38;1.70;;;;;;;-3.82;56.77;99917.03;4942278;28;20050;-74
2021/11/23 01:43:05;;;;;;;6.65;1.60;;;;;;;-3.71;56.98;99943.00;4988806;28;20050;-76
2021/11/23 01:45:33;;;;;;;4.30;2.10;;;;;;;-3.70;56.75;99948.19;4975605;28;20042;-77
2021/11/23 01:47:58;;;;;;;3.42;1.60;;;;;;;-3.97;56.89;99899.34;4972486;28;20045;-78
2021/11/23 01:50:24;;;;;;;4.75;2.20;;;;;;;-3.68;56.85;99963.53;4957846;28;20568;-76
2021/11/23 01:52:52;;;;;;;7.53;2.10;;;;;;;-3.99;57.06;99927.22;4960703;28;20504;-82
2021/11/23 01:55:18;;;;;;;7.72;2.13;;;;;;;-3.84;57.07;99944.94;4960160;28;20045;-78
2021/11/23 01:57:47;;;;;;;4.95;2.20;;;;;;;-3.79;57.00;99956.25;4974862;28;20512;-76
2021/11/23 02:00:14;;;;;;;4.85;1.92;;;;;;;-3.89;57.34;99953.16;4989174;28;20042;-82
2021/11/23 02:02:45;;;;;;;6.10;1.90;;;;;;;-3.83;57.56;99961.97;4973978;28;20036;-76
2021/11/23 02:05:12;;;;;;;10.43;1.98;;;;;;;-4.10;56.98;99913.97;4975491;28;20076;-79
2021/11/23 02:07:39;;;;;;;5.10;2.63;;;;;;;-3.86;57.06;99954.16;4987482;28;20050;-79
2021/11/23 02:10:07;;;;;;;4.82;2.10;;;;;;;-3.90;57.50;99961.56;4986031;28;20047;-79
2021/11/23 02:12:35;;;;;;;8.27;2.25;;;;;;;-4.11;57.17;99932.53;4974308;28;20053;-78
2021/11/23 02:15:04;;;;;;;13.80;2.50;;;;;;;-4.03;57.59;99962.59;4981729;28;20110;-77
2021/11/23 02:17:34;;;;;;;8.57;2.42;;;;;;;-4.24;57.24;99920.88;4954741;28;20039;-80
2021/11/23 02:20:02;;;;;;;6.50;1.95;;;;;;;-4.24;57.58;99925.09;4969861;28;20058;-79
2021/11/23 02:22:31;;;;;;;4.78;1.65;;;;;;;-4.04;57.59;99955.75;4942804;28;20129;-77
2021/11/23 02:25:00;;;;;;;5.60;1.70;;;;;;;-4.05;57.61;99949.78;4941126;28;20043;-81
2021/11/23 02:27:26;;;;;;;4.43;1.65;;;;;;;-4.18;57.80;99943.19;4948742;28;20568;-76
2021/11/23 02:29:52;;;;;;;4.60;1.77;;;;;;;-4.48;57.43;99889.97;4965675;28;20133;-78
2021/11/23 02:32:18;;;;;;;6.63;1.75;;;;;;;-4.24;57.93;99945.41;4967811;28;20485;-78
2021/11/23 02:34:43;;;;;;;6.25;2.05;;;;;;;-4.31;58.53;99944.22;4949833;28;20047;-78
2021/11/23 02:37:09;;;;;;;4.03;1.90;;;;;;;-4.38;58.03;99940.47;4949428;28;20053;-80
2021/11/23 02:39:35;;;;;;;4.03;2.05;;;;;;;-4.25;57.88;99977.56;4937126;28;20047;-81
2021/11/23 02:42:01;;;;;;;4.85;1.98;;;;;;;-4.51;58.23;99924.47;4969722;28;20047;-77
2021/11/23 02:44:27;;;;;;;6.00;2.05;;;;;;;-4.30;57.98;99971.34;4995053;28;20502;-77
2021/11/23 02:46:53;;;;;;;5.72;2.30;;;;;;;-4.41;58.09;99950.44;4971674;28;20050;-82
2021/11/23 02:49:22;;;;;;;6.13;1.90;;;;;;;-4.39;58.13;99959.03;4947413;28;20051;-78
2021/11/23 02:51:49;;;;;;;7.20;2.33;;;;;;;-4.66;57.98;99911.84;4966919;28;20035;-79
2021/11/23 02:54:15;;;;;;;8.70;2.08;;;;;;;-4.47;58.50;99956.88;4948281;28;21071;-79
2021/11/23 02:56:41;;;;;;;6.25;2.33;;;;;;;-4.62;58.05;99942.56;4964023;28;20054;-79
2021/11/23 02:59:07;;;;;;;3.40;2.13;;;;;;;-4.59;58.36;99949.47;4938343;28;20047;-77
2021/11/23 03:01:33;;;;;;;4.93;2.05;;;;;;;-4.50;58.63;99966.88;4974144;28;20050;-78
2021/11/23 03:03:59;;;;;;;6.65;2.58;;;;;;;-4.60;58.69;99956.22;4967926;28;20405;-80
2021/11/23 03:06:24;;;;;;;6.75;2.50;;;;;;;-4.95;58.38;99894.22;4947834;28;20106;-79
2021/11/23 03:08:52;;;;;;;6.40;2.25;;;;;;;-4.57;58.35;99970.75;4947562;28;20145;-80
2021/11/23 03:11:20;;;;;;;4.68;2.30;;;;;;;-4.68;59.18;99952.38;4967858;28;20054;-80
2021/11/23 03:13:46;;;;;;;5.40;2.22;;;;;;;-4.63;58.74;99983.13;4981273;28;20055;-79
2021/11/23 03:16:12;;;;;;;6.43;2.42;;;;;;;-4.66;59.41;99975.34;4981141;28;20047;-77
2021/11/23 03:18:38;;;;;;;7.35;2.50;;;;;;;-4.66;58.96;99978.75;4968816;28;20065;-82
2021/11/23 03:21:04;;;;;;;4.38;2.45;;;;;;;-4.80;58.79;99954.25;4973706;28;20505;-77
2021/11/23 03:23:30;;;;;;;5.88;2.83;;;;;;;-4.93;59.14;99934.94;4995500;28;20058;-81
2021/11/23 03:25:56;;;;;;;8.50;2.70;;;;;;;-4.66;59.36;99976.19;4951552;28;20050;-78
2021/11/23 03:28:22;;;;;;;6.28;2.38;;;;;;;-4.64;59.03;99972.09;4968967;28;20437;-77
2021/11/23 03:30:48;;;;;;;8.77;2.40;;;;;;;-4.63;58.87;99968.75;4966674;28;20039;-80
2021/11/23 03:33:14;;;;;;;6.65;2.13;;;;;;;-4.64;59.26;99969.53;4947919;28;20059;-81
2021/11/23 03:35:42;;;;;;;4.07;2.00;;;;;;;-4.63;59.52;99980.59;4965063;28;20046;-78
2021/11/23 03:38:10;;;;;;;6.28;2.33;;;;;;;-4.70;59.67;99970.09;4968761;28;20047;-82
2021/11/23 03:40:38;;;;;;;4.55;2.17;;;;;;;-4.78;59.72;99966.25;4965788;28;20078;-80
2021/11/23 03:43:04;;;;;;;6.53;2.45;;;;;;;-4.68;59.57;99987.94;4968294;28;20069;-80
2021/11/23 03:45:31;;;;;;;6.70;2.00;;;;;;;-4.73;59.12;99989.34;4939757;28;20053;-78
2021/11/23 03:48:01;;;;;;;5.88;2.35;;;;;;;-5.08;59.25;99933.31;4969790;28;20050;-79
2021/11/23 03:51:31;;;;;;;6.82;2.00;;;;;;;-4.74;59.60;99992.66;4954815;28;20045;-77
2021/11/23 03:53:57;;;;;;;8.18;2.22;;;;;;;-5.63;59.34;99844.81;4972172;28;22150;-76
2021/11/23 03:56:27;;;;;;;7.55;2.17;;;;;;;-5.48;59.76;99860.88;4962719;28;20042;-77
2021/11/23 03:58:53;;;;;;;6.88;2.47;;;;;;;-5.14;59.77;99905.88;4947876;28;20038;-77
2021/11/23 04:01:19;;;;;;;5.63;1.77;;;;;;;-4.91;59.45;99968.91;4974805;28;20046;-81
2021/11/23 04:03:44;;;;;;;4.95;2.13;;;;;;;-4.99;59.33;99958.31;4971310;28;20106;-78
2021/11/23 04:06:10;;;;;;;4.95;2.15;;;;;;;-4.92;59.49;99969.69;4990898;28;20117;-79
2021/11/23 04:08:36;;;;;;;4.65;2.00;;;;;;;-5.07;59.86;99957.00;4972227;28;20093;-78
2021/11/23 04:11:02;;;;;;;3.65;1.98;;;;;;;-5.00;59.91;99980.28;4970293;28;20031;-78
2021/11/23 04:13:28;;;;;;;6.15;2.13;;;;;;;-4.88;60.28;99990.25;4972586;28;20047;-75
2021/11/23 04:15:54;;;;;;;9.82;2.65;;;;;;;-5.17;60.08;99946.31;4957145;28;20058;-79
2021/11/23 04:18:20;;;;;;;7.00;2.00;;;;;;;-5.17;59.79;99937.84;4957606;28;20063;-75
2021/11/23 04:20:46;;;;;;;6.40;2.78;;;;;;;-4.84;59.98;99983.66;4970829;28;20174;-80
2021/11/23 04:23:12;;;;;;;4.20;2.00;;;;;;;-5.01;60.38;99947.19;4941050;28;20061;-77
2021/11/23 04:25:38;;;;;;;9.70;2.38;;;;;;;-4.86;60.39;99959.88;4961130;28;20053;-82
2021/11/23 04:28:04;;;;;;;9.25;2.45;;;;;;;-4.90;60.09;99958.81;4987232;28;20115;-77
2021/11/23 04:30:31;;;;;;;9.23;2.33;;;;;;;-4.69;60.13;99988.72;4980655;28;20058;-79
2021/11/23 04:32:57;;;;;;;6.85;2.55;;;;;;;-4.66;60.59;99993.97;4973116;28;20065;-77
2021/11/23 04:35:23;;;;;;;8.90;2.20;;;;;;;-5.24;60.30;99895.13;4967640;28;20042;-80
2021/11/23 04:37:49;;;;;;;6.38;2.55;;;;;;;-4.59;60.21;99995.19;4982022;28;20046;-80
2021/11/23 04:40:17;;;;;;;5.15;2.00;;;;;;;-4.63;60.25;99976.38;4966892;28;20153;-82
2021/11/23 04:42:43;;;;;;;4.32;1.90;;;;;;;-4.63;60.41;99981.44;4954886;28;20067;-78
2021/11/23 04:45:11;;;;;;;4.97;2.00;;;;;;;-4.49;60.43;99984.75;4969466;28;20126;-78
2021/11/23 04:47:38;;;;;;;4.13;2.00;;;;;;;-4.44;60.32;100001.13;4967016;28;20058;-81
2021/11/23 04:50:06;;;;;;;2.63;1.63;;;;;;;-4.71;60.28;99948.03;4984391;28;20050;-78
2021/11/23 04:52:32;;;;;;;3.30;1.77;;;;;;;-4.38;60.50;99991.28;4940322;28;20049;-77
2021/11/23 04:54:58;;;;;;;4.68;1.85;;;;;;;-4.35;60.65;99997.31;4968741;28;20069;-78
2021/11/23 04:57:24;;;;;;;4.78;2.10;;;;;;;-4.33;60.13;99983.03;4969452;28;20098;-77
2021/11/23 04:59:51;;;;;;;5.75;2.15;;;;;;;-4.19;60.03;99999.03;4970044;28;20149;-82
2021/11/23 05:02:18;;;;;;;4.30;2.20;;;;;;;-4.36;60.31;99965.97;4937353;28;20038;-81
2021/11/23 05:04:46;;;;;;;4.65;2.28;;;;;;;-4.22;60.28;99989.59;4951640;28;20089;-80
2021/11/23 05:07:12;;;;;;;8.48;2.00;;;;;;;-4.47;60.26;99939.09;4953895;28;20035;-79
2021/11/23 05:09:38;;;;;;;4.70;1.88;;;;;;;-4.09;60.23;100001.28;4970148;28;20073;-79
2021/11/23 05:12:05;;;;;;;5.38;2.20;;;;;;;-4.02;60.51;100002.47;4985334;28;20035;-78
2021/11/23 05:14:31;;;;;;;5.05;2.33;;;;;;;-4.06;60.84;99976.00;4987297;28;20039;-77
2021/11/23 05:16:57;;;;;;;6.93;2.13;;;;;;;-3.88;60.39;99996.44;4969408;28;20041;-78
2021/11/23 05:19:23;;;;;;;5.65;2.10;;;;;;;-3.68;60.56;100005.13;4971532;28;20086;-76
2021/11/23 05:21:49;;;;;;;7.75;2.42;;;;;;;-3.66;60.22;99997.56;4953320;28;20085;-78
2021/11/23 05:24:15;;;;;;;6.95;2.22;;;;;;;-3.50;60.26;100011.94;4973579;28;20042;-77
2021/11/23 05:26:42;;;;;;;3.50;2.08;;;;;;;-3.40;60.31;100011.59;4994344;28;20038;-76
2021/11/23 05:29:10;;;;;;;4.57;2.25;;;;;;;-3.19;60.04;100003.28;4957186;28;20039;-82
2021/11/23 05:31:36;;;;;;;7.30;2.30;;;;;;;-3.15;60.00;99971.25;4973543;28;20782;-77
2021/11/23 05:34:02;;;;;;;15.20;2.83;;;;;;;-2.98;59.79;99990.75;4962286;28;20046;-80
2021/11/23 05:36:28;;;;;;;4.63;2.15;;;;;;;-2.93;59.51;99984.22;4960017;28;20077;-77
2021/11/23 05:38:54;;;;;;;5.78;2.10;;;;;;;-2.55;60.03;100009.78;4986133;28;20059;-75
2021/11/23 05:41:20;;;;;;;3.63;2.10;;;;;;;-2.36;59.45;100014.06;4971506;28;20104;-78
2021/11/23 05:43:46;;;;;;;5.10;2.13;;;;;;;-2.46;59.20;100005.09;4953920;28;20085;-79
2021/11/23 05:46:14;;;;;;;4.88;2.45;;;;;;;-2.60;58.92;100013.78;4969903;28;20101;-80
2021/11/23 05:48:40;;;;;;;6.93;2.78;;;;;;;-2.70;58.69;100009.94;4971009;28;20520;-79
2021/11/23 05:51:06;;;;;;;5.20;2.33;;;;;;;-2.95;59.25;99974.72;4969632;28;20112;-80
2021/11/23 05:53:35;;;;;;;4.05;2.20;;;;;;;-2.78;59.13;100013.75;4970257;28;20058;-78
2021/11/23 05:56:01;;;;;;;5.28;2.50;;;;;;;-2.83;59.09;100011.00;4974658;28;20408;-78
2021/11/23 05:58:27;;;;;;;10.57;2.65;;;;;;;-3.00;59.45;99992.34;4977272;28;20059;-78
2021/11/23 06:00:55;;;;;;;5.97;2.80;;;;;;;-2.98;59.04;100005.16;4978922;28;20066;-79
2021/11/23 06:03:21;;;;;;;5.72;2.63;;;;;;;-3.26;58.81;99960.53;4980331;28;20469;-78
2021/11/23 06:05:48;;;;;;;9.82;2.72;;;;;;;-3.19;59.13;99988.00;4973415;28;20039;-80
2021/11/23 06:08:14;;;;;;;7.75;2.78;;;;;;;-2.95;59.77;100006.19;4957889;28;20149;-81
2021/11/23 06:10:40;;;;;;;5.78;2.33;;;;;;;-2.43;60.00;100004.38;4926206;28;20074;-77
2021/11/23 06:13:06;;;;;;;5.75;2.58;;;;;;;-1.11;59.97;99988.03;4957748;28;20070;-77
2021/11/23 06:15:32;;;;;;;7.30;2.67;;;;;;;0.35;59.57;99959.38;4948401;28;20050;-78
2021/11/23 06:18:02;;;;;;;7.63;2.20;;;;;;;1.74;57.64;100004.03;4959018;28;20676;-79
2021/11/23 06:20:33;;;;;;;5.80;1.98;;;;;;;2.32;55.90;100009.97;4974142;28;20125;-77
2021/11/23 06:23:01;;;;;;;4.05;2.00;;;;;;;2.37;55.07;99987.84;4985064;28;20066;-80
2021/11/23 06:25:28;;;;;;;6.10;3.00;;;;;;;3.08;54.79;100000.81;4955427;28;20046;-78
2021/11/23 06:27:54;;;;;;;5.85;2.58;;;;;;;3.59;53.45;99995.19;4954841;28;20035;-79
2021/11/23 06:30:20;;;;;;;6.18;3.05;;;;;;;4.26;52.79;99977.69;4970926;28;20051;-82
2021/11/23 06:32:47;;;;;;;4.45;2.63;;;;;;;5.05;51.83;99985.09;4984653;28;20114;-80
2021/11/23 06:35:14;;;;;;;6.25;3.17;;;;;;;5.63;50.95;99955.84;4970129;28;20046;-79
2021/11/23 06:37:40;;;;;;;7.47;3.03;;;;;;;6.52;49.30;99962.13;4955243;28;20042;-78
2021/11/23 06:40:18;;;;;;;7.03;2.85;;;;;;;7.30;47.42;99948.13;4953533;28;20055;-81
2021/11/23 06:42:47;;;;;;;4.75;2.50;;;;;;;8.06;46.60;99949.38;4956442;28;20137;-77
2021/11/23 06:45:13;;;;;;;6.32;2.42;;;;;;;8.57;44.81;99917.56;4972336;23;20059;-77
2021/11/23 06:47:59;;;;;;;9.05;2.65;;;;;;;8.71;43.43;99827.66;4962309;28;20040;-81
2021/11/23 06:50:32;;;;;;;9.68;2.92;;;;;;;9.43;42.03;99849.13;4921355;29;20059;-81
2021/11/23 06:53:10;;;;;;;5.60;2.55;;;;;;;10.78;41.24;99969.81;4968534;28;20035;-79
2021/11/23 06:55:51;;;;;;;11.98;3.95;;;;;;;11.06;39.21;99970.47;4951642;29;20042;-82
2021/11/23 06:58:21;;;;;;;8.95;2.85;;;;;;;11.10;38.13;99935.72;4935106;29;20099;-80
2021/11/23 07:00:59;;;;;;;14.30;3.55;;;;;;;11.14;38.03;99900.06;4936868;29;20040;-79
2021/11/23 07:03:31;;;;;;;5.78;3.30;;;;;;;11.49;37.33;99825.88;4982971;28;20047;-79
2021/11/23 07:05:56;;;;;;;6.43;3.10;;;;;;;12.50;36.78;99902.78;4966823;28;20047;-82
2021/11/23 07:08:33;;;;;;;7.15;2.60;;;;;;;13.50;35.48;99955.13;4963549;28;20082;-77
2021/11/23 07:11:27;;;;;;;9.40;3.65;;;;;;;13.37;34.57;99854.28;4947539;29;20576;-77
2021/11/23 07:14:00;;;;;;;8.77;3.50;;;;;;;12.96;33.18;99812.38;4954416;29;20047;-79
2021/11/23 07:16:29;;;;;;;12.13;3.83;;;;;;;14.01;33.10;99893.13;4925701;29;20046;-78
2021/11/23 07:18:55;;;;;;;10.45;3.70;;;;;;;14.96;32.25;99897.03;4940250;29;20043;-81
2021/11/23 07:21:25;;;;;;;9.00;3.72;;;;;;;14.88;31.57;99896.38;4943422;29;20460;-78
2021/11/23 07:23:51;;;;;;;8.93;3.20;;;;;;;15.33;31.02;99935.41;4956598;29;20051;-79
2021/11/23 07:26:18;;;;;;;7.90;3.92;;;;;;;14.22;30.64;99954.59;4936974;29;20055;-77
2021/11/23 07:28:44;;;;;;;8.45;4.28;;;;;;;12.49;30.67;99943.69;4936525;29;20044;-78
2021/11/23 07:31:10;;;;;;;7.63;3.80;;;;;;;10.98;31.67;99967.03;4968368;28;20035;-81
2021/11/23 07:33:47;;;;;;;9.40;4.45;;;;;;;9.07;32.52;99933.16;4956894;29;20058;-78
2021/11/23 07:36:24;;;;;;;13.68;4.50;;;;;;;7.74;34.38;99957.88;4984033;28;20074;-80
2021/11/23 07:38:53;;;;;;;8.60;3.95;;;;;;;6.86;36.00;99989.19;4950293;29;20036;-78
2021/11/23 07:41:20;;;;;;;9.82;4.07;;;;;;;6.30;37.42;100011.00;4931788;29;20093;-81
2021/11/23 07:43:46;;;;;;;10.50;3.80;;;;;;;6.22;39.24;99977.31;4967196;28;20497;-80
2021/11/23 07:46:12;;;;;;;6.57;3.67;;;;;;;6.63;39.15;99969.13;4984621;28;20062;-80
2021/11/23 07:48:38;;;;;;;8.05;3.55;;;;;;;6.92;39.37;100022.88;4942415;28;20050;-80
2021/11/23 07:51:05;;;;;;;8.35;3.40;;;;;;;6.75;40.10;100021.81;4966069;28;20071;-79
2021/11/23 07:53:31;;;;;;;8.50;3.95;;;;;;;6.49;40.22;100009.50;4970644;28;20035;-79
2021/11/23 07:55:57;;;;;;;8.57;3.90;;;;;;;6.47;40.51;100012.06;4958098;28;20034;-80
2021/11/23 07:58:24;;;;;;;5.40;3.28;;;;;;;6.79;40.88;100002.91;4961778;28;20039;-77
2021/11/23 08:00:50;;;;;;;6.72;3.88;;;;;;;7.01;40.63;100021.22;5001899;28;20145;-78
2021/11/23 08:03:16;;;;;;;7.95;3.88;;;;;;;6.58;40.68;99960.47;4986697;28;20282;-78
2021/11/23 08:05:43;;;;;;;6.88;3.88;;;;;;;6.36;40.11;99985.22;4969566;28;20154;-79
2021/11/23 08:08:10;;;;;;;6.88;3.42;;;;;;;6.52;39.99;99987.97;4970177;28;20045;-77
2021/11/23 08:10:39;;;;;;;9.27;3.20;;;;;;;6.86;40.54;100015.06;4973323;28;20047;-79
2021/11/23 08:13:05;;;;;;;6.47;3.40;;;;;;;7.56;39.48;99968.16;4957273;28;20094;-80
2021/11/23 08:15:34;;;;;;;6.38;3.30;;;;;;;9.31;39.75;99989.38;4970874;28;20046;-80
2021/11/23 08:18:07;;;;;;;6.95;3.00;;;;;;;11.41;36.54;99966.66;4956380;28;20039;-79
2021/11/23 08:20:43;;;;;;;7.22;2.92;;;;;;;13.64;35.69;99972.31;4988081;28;20046;-79
2021/11/23 08:23:09;;;;;;;5.57;3.08;;;;;;;14.67;32.90;99948.38;4990274;28;20042;-79
2021/11/23 08:25:38;;;;;;;10.82;3.38;;;;;;;15.47;32.13;99937.63;4974605;28;20053;-78
2021/11/23 08:28:20;;;;;;;5.18;2.83;;;;;;;14.92;31.22;99861.31;4958617;28;20053;-79
2021/11/23 08:30:50;;;;;;;6.38;3.10;;;;;;;14.47;30.92;99969.75;4986482;28;20046;-78
2021/11/23 08:33:38;;;;;;;4.60;3.00;;;;;;;12.91;31.38;99916.91;4971144;28;20051;-78
2021/11/23 08:36:17;;;;;;;6.13;2.90;;;;;;;11.67;31.73;99853.47;4974126;28;20043;-79
2021/11/23 08:38:43;;;;;;;6.00;2.90;;;;;;;12.18;32.22;99958.91;4950431;28;20069;-80
2021/11/23 08:41:10;;;;;;;6.45;3.33;;;;;;;11.60;32.67;99953.44;4953147;28;20058;-79
2021/11/23 08:43:37;;;;;;;5.38;3.05;;;;;;;11.86;32.94;99971.44;4971297;28;20062;-79
2021/11/23 08:46:04;;;;;;;6.03;3.17;;;;;;;12.77;32.71;99968.50;5003091;28;20673;-80
2021/11/23 08:48:30;;;;;;;4.32;3.03;;;;;;;14.32;32.40;99957.88;4987780;28;20521;-78
2021/11/23 08:50:56;;;;;;;7.07;2.90;;;;;;;14.43;30.80;99958.50;4963866;28;20050;-78
2021/11/23 08:53:22;;;;;;;5.63;2.97;;;;;;;13.41;31.01;99960.53;5009547;28;20101;-78
2021/11/23 08:55:51;;;;;;;7.65;3.53;;;;;;;12.11;31.44;99937.25;4977148;28;20053;-78
2021/11/23 08:58:17;;;;;;;5.35;3.03;;;;;;;11.52;32.36;99963.09;4998839;28;20027;-78
2021/11/23 09:00:44;;;;;;;5.53;3.08;;;;;;;10.34;32.56;99893.72;4994472;28;20061;-78
2021/11/23 09:03:10;;;;;;;4.88;2.70;;;;;;;11.63;32.58;99968.22;4995838;28;20037;-78
2021/11/23 09:05:36;;;;;;;5.22;2.53;;;;;;;13.22;32.27;99966.03;5001047;28;20050;-79
2021/11/23 09:08:05;;;;;;;3.83;2.60;;;;;;;15.26;31.12;99940.84;4979441;28;20053;-78
2021/11/23 09:10:35;;;;;;;4.82;2.33;;;;;;;16.93;29.01;99950.88;5008796;28;20046;-79
2021/11/23 09:13:02;;;;;;;5.97;2.67;;;;;;;16.63;27.38;99945.72;5011091;28;20039;-78
2021/11/23 09:15:30;;;;;;;3.83;2.42;;;;;;;15.44;28.16;99949.97;4982449;28;20046;-81
2021/11/23 09:17:59;;;;;;;3.40;2.22;;;;;;;16.41;28.19;99951.66;5003465;28;21148;-81
2021/11/23 09:20:35;;;;;;;5.07;2.58;;;;;;;17.65;27.48;99905.50;4986888;28;20050;-80
2021/11/23 09:23:13;;;;;;;5.68;2.70;;;;;;;19.10;26.43;99927.13;5019096;28;20049;-80
2021/11/23 09:25:40;;;;;;;4.07;2.40;;;;;;;20.20;25.19;99939.91;5014810;28;20110;-77
2021/11/23 09:28:08;;;;;;;5.45;2.85;;;;;;;20.86;24.29;99905.06;4997709;28;20069;-78
2021/11/23 09:30:35;;;;;;;4.13;2.80;;;;;;;21.51;24.12;99908.84;5019575;28;20042;-78
2021/11/23 09:33:03;;;;;;;5.57;2.70;;;;;;;22.08;23.14;99931.44;5003159;28;20030;-81
2021/11/23 09:35:29;;;;;;;5.45;3.15;;;;;;;22.46;22.69;99939.06;4939045;28;20047;-81
2021/11/23 09:37:57;;;;;;;5.47;2.78;;;;;;;22.82;22.23;99922.00;4975270;28;20534;-81
2021/11/23 09:40:23;;;;;;;4.35;2.80;;;;;;;22.90;21.35;99918.03;4989011;28;20062;-82
2021/11/23 09:42:50;;;;;;;3.17;2.42;;;;;;;22.71;21.60;99932.38;4970334;28;20038;-83
2021/11/23 09:45:17;;;;;;;6.85;3.22;;;;;;;22.80;21.10;99929.19;4972730;28;20062;-80
2021/11/23 09:47:44;;;;;;;3.22;2.80;;;;;;;22.42;21.06;99909.22;4988113;28;20046;-79
2021/11/23 09:50:11;;;;;;;4.30;2.47;;;;;;;22.82;20.30;99906.09;4980625;28;20050;-78
2021/11/23 09:52:37;;;;;;;4.15;2.60;;;;;;;22.60;20.47;99895.03;4994308;28;21015;-81
2021/11/23 09:55:06;;;;;;;6.15;3.05;;;;;;;20.57;20.59;99919.69;4990026;28;20503;-77
2021/11/23 09:57:32;;;;;;;8.23;3.25;;;;;;;17.50;21.18;99932.38;4971190;28;20098;-80
2021/11/23 10:00:00;;;;;;;8.15;5.38;;;;;;;14.91;22.79;99912.00;5000815;28;20419;-78
2021/11/23 10:02:29;;;;;;;15.82;4.18;;;;;;;13.29;23.96;99951.13;4989067;28;20054;-81
2021/11/23 10:05:05;;;;;;;15.70;4.03;;;;;;;11.78;25.56;99960.22;4987202;28;20042;-80
2021/11/23 10:07:42;;;;;;;13.30;3.97;;;;;;;10.44;26.78;99952.69;4987677;28;20042;-78
2021/11/23 10:10:10;;;;;;;6.40;2.95;;;;;;;9.46;27.70;99968.59;5004968;28;20038;-77
2021/11/23 10:12:36;;;;;;;8.63;3.60;;;;;;;8.68;28.59;99972.94;4983196;28;20058;-78
2021/11/23 10:15:14;;;;;;;6.25;3.42;;;;;;;8.02;29.77;99970.09;5010813;28;20051;-78
2021/11/23 10:17:45;;;;;;;9.93;3.95;;;;;;;7.30;30.58;99938.63;4989705;28;20072;-78
2021/11/23 10:20:45;;;;;;;7.50;3.10;;;;;;;7.08;30.67;99984.19;4977020;28;20045;-80
2021/11/23 10:23:11;;;;;;;11.98;2.90;;;;;;;6.80;31.57;99989.13;4972090;28;20061;-80
2021/11/23 10:25:38;;;;;;;8.38;3.03;;;;;;;6.71;32.10;99989.88;4942388;28;20042;-80
2021/11/23 10:28:04;;;;;;;8.65;3.63;;;;;;;6.64;32.39;99975.16;4990370;28;20100;-79
2021/11/23 10:30:30;;;;;;;5.53;2.90;;;;;;;6.56;32.28;99979.41;4971115;28;20053;-77
2021/11/23 10:32:57;;;;;;;6.05;2.88;;;;;;;6.39;32.53;99986.97;4976466;28;20451;-80
2021/11/23 10:35:26;;;;;;;9.00;3.40;;;;;;;6.06;32.64;99984.00;5004622;28;20136;-78
2021/11/23 10:37:53;;;;;;;9.88;3.05;;;;;;;5.79;33.07;99982.75;4986027;28;20046;-78
2021/11/23 10:40:23;;;;;;;9.45;3.20;;;;;;;5.59;33.51;99972.16;4967588;28;20046;-77
2021/11/23 10:42:52;;;;;;;9.18;3.67;;;;;;;5.51;33.79;99986.66;5002475;28;20074;-80
2021/11/23 10:45:21;;;;;;;10.02;3.40;;;;;;;5.17;34.42;99981.84;5005280;28;20062;-80
2021/11/23 10:47:48;;;;;;;11.45;4.10;;;;;;;4.88;34.88;99989.97;4973270;28;20046;-78
2021/11/23 10:50:17;;;;;;;9.10;3.40;;;;;;;4.48;35.28;99978.94;4974069;28;20534;-80
2021/11/23 10:52:45;;;;;;;9.15;4.00;;;;;;;4.09;35.33;99970.47;4996810;28;20030;-78
2021/11/23 10:55:32;;;;;;;10.73;3.05;;;;;;;3.91;36.00;99994.13;4987156;28;20125;-78
2021/11/23 10:58:01;;;;;;;13.05;4.10;;;;;;;3.40;37.08;99960.44;4963178;28;20042;-79
2021/11/23 11:00:30;;;;;;;13.17;3.60;;;;;;;3.45;37.47;99976.84;4973729;28;20039;-77
2021/11/23 11:03:03;;;;;;;11.45;3.05;;;;;;;3.20;37.91;99941.94;4988387;28;20052;-78
2021/11/23 11:05:33;;;;;;;7.13;2.50;;;;;;;3.39;37.77;99963.84;5004503;28;20050;-79
2021/11/23 11:07:59;;;;;;;5.13;2.40;;;;;;;3.26;37.54;99960.09;4988064;28;20181;-77
2021/11/23 11:10:27;;;;;;;4.88;2.47;;;;;;;3.12;37.86;99943.50;5003007;28;20094;-81
2021/11/23 11:12:53;;;;;;;5.32;2.63;;;;;;;3.14;38.26;99941.81;4973131;28;20073;-79
2021/11/23 11:15:25;;;;;;;4.20;1.88;;;;;;;3.24;38.66;99954.06;4988845;28;20042;-80
2021/11/23 11:17:53;;;;;;;3.70;2.13;;;;;;;3.31;38.67;99957.66;4989041;28;20057;-80
2021/11/23 11:20:35;;;;;;;2.90;2.10;;;;;;;3.27;38.81;99969.56;4961172;28;20081;-78
2021/11/23 11:23:07;;;;;;;8.65;2.05;;;;;;;2.89;38.85;99917.22;4992468;28;20046;-78
2021/11/23 11:25:56;;;;;;;6.75;3.17;;;;;;;3.25;38.86;99990.94;4985581;28;20472;-79
2021/11/23 11:28:52;;;;;;;5.07;2.47;;;;;;;3.07;38.45;99994.81;4986445;28;20069;-78
2021/11/23 11:31:43;;;;;;;9.88;3.10;;;;;;;2.69;38.93;99993.00;4982872;28;20058;-77
2021/11/23 11:34:25;;;;;;;6.85;2.78;;;;;;;2.26;39.77;99999.56;4995519;28;20073;-78
2021/11/23 11:36:59;;;;;;;13.23;3.00;;;;;;;2.05;39.49;99999.78;4981669;28;20061;-77
2021/11/23 11:39:37;;;;;;;15.93;3.35;;;;;;;1.93;40.20;99996.06;4967179;28;20051;-82